地図

経路データ

SID SEASON NUMBER BASIN SUBBASIN NAME ISO_TIME NATURE LAT LON WMO_WIND WMO_PRES WMO_AGENCY TRACK_TYPE DIST2LAND LANDFALL IFLAG USA_AGENCY USA_ATCF_ID USA_LAT USA_LON USA_RECORD USA_STATUS USA_WIND USA_PRES USA_SSHS USA_R34_NE USA_R34_SE USA_R34_SW USA_R34_NW USA_R50_NE USA_R50_SE USA_R50_SW USA_R50_NW USA_R64_NE USA_R64_SE USA_R64_SW USA_R64_NW USA_POCI USA_ROCI USA_RMW USA_EYE TOKYO_LAT TOKYO_LON TOKYO_GRADE TOKYO_WIND TOKYO_PRES TOKYO_R50_DIR TOKYO_R50_LONG TOKYO_R50_SHORT TOKYO_R30_DIR TOKYO_R30_LONG TOKYO_R30_SHORT TOKYO_LAND CMA_LAT CMA_LON CMA_CAT CMA_WIND CMA_PRES HKO_LAT HKO_LON HKO_CAT HKO_WIND HKO_PRES NEWDELHI_LAT NEWDELHI_LON NEWDELHI_GRADE NEWDELHI_WIND NEWDELHI_PRES NEWDELHI_CI NEWDELHI_DP NEWDELHI_POCI REUNION_LAT REUNION_LON REUNION_TYPE REUNION_WIND REUNION_PRES REUNION_TNUM REUNION_CI REUNION_RMW REUNION_R34_NE REUNION_R34_SE REUNION_R34_SW REUNION_R34_NW REUNION_R50_NE REUNION_R50_SE REUNION_R50_SW REUNION_R50_NW REUNION_R64_NE REUNION_R64_SE REUNION_R64_SW REUNION_R64_NW BOM_LAT BOM_LON BOM_TYPE BOM_WIND BOM_PRES BOM_TNUM BOM_CI BOM_RMW BOM_R34_NE BOM_R34_SE BOM_R34_SW BOM_R34_NW BOM_R50_NE BOM_R50_SE BOM_R50_SW BOM_R50_NW BOM_R64_NE BOM_R64_SE BOM_R64_SW BOM_R64_NW BOM_ROCI BOM_POCI BOM_EYE BOM_POS_METHOD BOM_PRES_METHOD NADI_LAT NADI_LON NADI_CAT NADI_WIND NADI_PRES WELLINGTON_LAT WELLINGTON_LON WELLINGTON_WIND WELLINGTON_PRES DS824_LAT DS824_LON DS824_STAGE DS824_WIND DS824_PRES TD9636_LAT TD9636_LON TD9636_STAGE TD9636_WIND TD9636_PRES TD9635_LAT TD9635_LON TD9635_WIND TD9635_PRES TD9635_ROCI NEUMANN_LAT NEUMANN_LON NEUMANN_CLASS NEUMANN_WIND NEUMANN_PRES MLC_LAT MLC_LON MLC_CLASS MLC_WIND MLC_PRES USA_GUST BOM_GUST BOM_GUST_PER REUNION_GUST REUNION_GUST_PER USA_SEAHGT USA_SEARAD_NE USA_SEARAD_SE USA_SEARAD_SW USA_SEARAD_NW STORM_SPEED STORM_DIR
1967205N13262 1967 54 EP MM FRANCENE 1967-07-24 00:00:00 TS 13.0000 -98.0000 45 hurdat_epa main 327 324 O________OO___ hurdat_epa EP061967 13.0000 -98.0000 TS 45 0 13.0000 -98.0000 TC 45 13.0000 -98.0000 2 20 287
1967205N13262 1967 54 EP MM FRANCENE 1967-07-24 03:00:00 TS 13.2963 -98.9996 main 328 327 P________PP___ EP061967 13.2906 -98.9897 TS 45 0 13.2906 -98.9897 TC 45 13.3191 -99.0389 2 21 287
1967205N13262 1967 54 EP MM FRANCENE 1967-07-24 06:00:00 TS 13.6078 -100.013 45 hurdat_epa main 337 334 O________OP___ hurdat_epa EP061967 13.6000 -100.000 TS 45 0 13.6000 -100.000 TC 45 13.6388 -100.064 2 21 288
1967205N13262 1967 54 EP MM FRANCENE 1967-07-24 09:00:00 TS 13.9468 -101.035 main 343 337 P________PP___ EP061967 13.9424 -101.030 TS 45 0 13.9424 -101.030 TC 45 13.9640 -101.056 2 21 290
1967205N13262 1967 54 EP MM FRANCENE 1967-07-24 12:00:00 TS 14.3000 -102.000 45 hurdat_epa main 349 341 O________OO___ hurdat_epa EP061967 14.3000 -102.000 TS 45 0 14.3000 -102.000 TC 45 14.3000 -102.000 2 19 292
1967205N13262 1967 54 EP MM FRANCENE 1967-07-24 15:00:00 TS 14.6495 -102.846 main 352 348 P________PP___ EP061967 14.6495 -102.838 TS 45 0 14.6495 -102.838 TC 45 14.6498 -102.880 2 17 294
1967205N13262 1967 54 EP MM FRANCENE 1967-07-24 18:00:00 TS 15.0012 -103.618 45 hurdat_epa main 352 341 O________OP___ hurdat_epa EP061967 15.0000 -103.600 TS 45 0 15.0000 -103.600 TC 45 15.0062 -103.692 2 17 295
1967205N13262 1967 54 EP MM FRANCENE 1967-07-24 21:00:00 TS 15.3579 -104.397 main 338 331 P________PP___ EP061967 15.3574 -104.388 TS 45 0 15.3574 -104.388 TC 45 15.3596 -104.433 2 16 296
1967205N13262 1967 54 EP MM FRANCENE 1967-07-25 00:00:00 TS 15.7000 -105.100 45 hurdat_epa main 337 333 O________OO___ hurdat_epa EP061967 15.7000 -105.100 TS 45 0 15.7000 -105.100 TC 45 15.7000 -105.100 2 14 297
1967205N13262 1967 54 EP MM FRANCENE 1967-07-25 03:00:00 TS 16.0034 -105.687 main 347 346 P________PP___ EP061967 16.0072 -105.688 TS 45 0 16.0072 -105.688 TC 45 15.9883 -105.682 2 12 299
1967205N13262 1967 54 EP MM FRANCENE 1967-07-25 06:00:00 TS 16.2935 -106.200 45 hurdat_epa main 356 351 O________OP___ hurdat_epa EP061967 16.3000 -106.200 TS 45 0 16.3000 -106.200 TC 45 16.2677 -106.198 2 11 301
1967205N13262 1967 54 EP MM FRANCENE 1967-07-25 09:00:00 TS 16.5744 -106.686 main 353 350 P________PP___ EP061967 16.5772 -106.686 TS 45 0 16.5772 -106.686 TC 45 16.5634 -106.689 2 11 302
1967205N13262 1967 54 EP MM FRANCENE 1967-07-25 12:00:00 TS 16.9000 -107.200 45 hurdat_epa main 361 361 O________OO___ hurdat_epa EP061967 16.9000 -107.200 TS 45 0 16.9000 -107.200 TC 45 16.9000 -107.200 2 13 304
1967205N13262 1967 54 EP MM FRANCENE 1967-07-25 15:00:00 TS 17.3242 -107.828 main 376 375 P________PP___ EP061967 17.3276 -107.835 TS 45 0 17.3276 -107.835 TC 45 17.3109 -107.800 2 15 306
1967205N13262 1967 54 EP MM FRANCENE 1967-07-25 18:00:00 TS 17.7925 -108.485 45 hurdat_epa main 398 398 O________OP___ hurdat_epa EP061967 17.8000 -108.500 TS 45 0 17.8000 -108.500 TC 45 17.7624 -108.427 2 15 307
1967205N13262 1967 54 EP MM FRANCENE 1967-07-25 21:00:00 TS 18.2523 -109.099 main 423 423 P________PP___ EP061967 18.2572 -109.108 TS 45 0 18.2572 -109.108 TC 45 18.2327 -109.066 2 15 308
1967205N13262 1967 54 EP MM FRANCENE 1967-07-26 00:00:00 TS 18.7000 -109.700 45 hurdat_epa main 460 425 O________OO___ hurdat_epa EP061967 18.7000 -109.700 TS 45 0 18.7000 -109.700 TC 45 18.7000 -109.700 2 14 307
1967205N13262 1967 54 EP MM FRANCENE 1967-07-26 03:00:00 TS 19.1037 -110.302 main 426 389 P________PP___ EP061967 19.0998 -110.300 TS 45 0 19.0998 -110.300 TC 45 19.1193 -110.309 2 14 305
1967205N13262 1967 54 EP MM FRANCENE 1967-07-26 06:00:00 TS 19.5068 -110.902 45 hurdat_epa main 391 365 O________OP___ hurdat_epa EP061967 19.5000 -110.900 TS 45 0 19.5000 -110.900 TC 45 19.5341 -110.910 2 14 306
1967205N13262 1967 54 EP MM FRANCENE 1967-07-26 09:00:00 TS 19.9392 -111.501 main 369 350 P________PP___ EP061967 19.9348 -111.500 TS 45 0 19.9348 -111.500 TC 45 19.9568 -111.506 2 14 308
1967205N13262 1967 54 EP MM FRANCENE 1967-07-26 12:00:00 TS 20.4000 -112.100 45 hurdat_epa main 353 348 O________OO___ hurdat_epa EP061967 20.4000 -112.100 TS 45 0 20.4000 -112.100 TC 45 20.4000 -112.100 2 15 310
1967205N13262 1967 54 EP MM FRANCENE 1967-07-26 15:00:00 TS 20.8903 -112.704 main 357 357 P________PP___ EP061967 20.8923 -112.700 TS 45 0 20.8923 -112.700 TC 45 20.8823 -112.720 2 15 311
1967205N13262 1967 54 EP MM FRANCENE 1967-07-26 18:00:00 TS 21.3970 -113.308 45 hurdat_epa main 376 361 O________OP___ hurdat_epa EP061967 21.4000 -113.300 TS 45 0 21.4000 -113.300 TC 45 21.3849 -113.338 2 15 312
1967205N13262 1967 54 EP MM FRANCENE 1967-07-26 21:00:00 TS 21.9049 -113.919 main 361 349 P________PP___ EP061967 21.9074 -113.915 TS 45 0 21.9074 -113.915 TC 45 21.8950 -113.936 2 15 312
1967205N13262 1967 54 EP MM FRANCENE 1967-07-27 00:00:00 TS 22.4000 -114.500 45 hurdat_epa main 354 353 O________OO___ hurdat_epa EP061967 22.4000 -114.500 TS 45 0 22.4000 -114.500 TC 45 22.4000 -114.500 2 14 313
1967205N13262 1967 54 EP MM FRANCENE 1967-07-27 03:00:00 TS 22.8579 -115.022 main 355 355 P________PP___ EP061967 22.8498 -115.023 TS 45 0 22.8498 -115.023 TC 45 22.8905 -115.018 2 13 315
1967205N13262 1967 54 EP MM FRANCENE 1967-07-27 06:00:00 TS 23.3136 -115.500 45 hurdat_epa main 374 374 O________OP___ hurdat_epa EP061967 23.3000 -115.500 TS 45 0 23.3000 -115.500 TC 45 23.3679 -115.498 2 13 318
1967205N13262 1967 54 EP MM FRANCENE 1967-07-27 09:00:00 TS 23.7975 -115.954 main 400 380 P________PP___ EP061967 23.7878 -115.954 TS 45 0 23.7878 -115.954 TC 45 23.8365 -115.954 2 13 320
1967205N13262 1967 54 EP MM FRANCENE 1967-07-27 12:00:00 TS 24.3000 -116.400 45 hurdat_epa main 380 O________OO___ hurdat_epa EP061967 24.3000 -116.400 TS 45 0 24.3000 -116.400 TC 45 24.3000 -116.400 2 13 321

IBTrACS Databaseについて

本データベースは、米国NOAAが公開する1842年以降の世界の熱帯低気圧のベストトラックデータアーカイブInternational Best Track Archive for Climate Stewardship (IBTrACS)を、ウェブで閲覧しやすい形式に変換したものです。

最終更新日:2021-10-21